Terminal Aerodrome Forecast
Issued by NWS Charleston, WV

Current Version | Previous Version | Text Only | Print | Product List | Glossary Off
Versions: 1 2 3 4 5 6 7 8 9 10 11 12 13 14 15 16 17 18 19 20 21 22 23 24 25 26 27 28 29 30

223
FTUS41 KRLX 182337
TAFPKB
TAF
KPKB 182337Z 1900/1924 20014G24KT 6SM SHRA OVC035
     FM190100 20013G30KT 3SM SHRA OVC025
     FM190300 25014G23KT P6SM SHRA OVC015
     FM190900 28012G22KT P6SM OVC025
     FM192100 28011G22KT P6SM BKN035=

USA.gov is the U.S. government's official web portal to all federal, state and local government web resources and services.